METAR AND TAF INFORMATION
METAR FOR KTEB
KTEB 260351Z 21003KT 10SM CLR M01/M06 A3008 RMK AO2 SLP186 T10061056
KTEB 260251Z 18004KT 10SM CLR 00/M05 A3009 RMK AO2 SLP188 T00001050 50000
KTEB 260151Z 22005KT 10SM CLR 00/M05 A3009 RMK AO2 SLP189 T00001050
KTEB 260220Z 2602/2706 22005KT P6SM SKC
FM260600 20004KT P6SM BKN100
TEMPO 2609/2612 -SHRA
FM261700 24006KT P6SM SCT100 SCT250
FM262200 19007KT P6SM SKC

 AIRPORT MAP

 RUNWAY INFORMATION
Runway 01 Runway length 7000 ft Runway width 150 ft
Runway elevation 9 ft Runway displaced threshold 771 ft Runway heading 3
Runway 19 Runway length 7000 ft Runway width 150 ft
Runway elevation 7 ft Runway displaced threshold 770 ft Runway heading 183
Runway 06 Runway length 6013 ft Runway width 150 ft
Runway elevation 6 ft Runway displaced threshold 0 ft Runway heading 48
Runway 24 Runway length 6013 ft Runway width 150 ft
Runway elevation 8 ft Runway displaced threshold 0 ft Runway heading 228

 AIRPORT FREQUENCIES
Type APP Name New York A Frequency 127.6 MHZ
Type ATIS Name ATIS Frequency 132.025 MHZ
Type CLD Name Teterboro Frequency 128.05 MHZ
Type DEP Name New York D Frequency 119.2 MHZ
Type GND Name Teterboro Frequency 121.9 MHZ
Type OPS Name ARPT OPS Frequency 130.575 MHZ
Type RDO Name Millville Frequency 122.2 MHZ
Type TWR Name Teterboro Frequency 119.5 MHZ
Type RDO Name Millville Frequency 122.65 MHZ
Type DEP Name New York D Frequency 126.7 MHZ
Type TWR Name Teterboro Frequency 125.1 MHZ

 AIRPORT NEAR NAVIGATION AIDS
Type NDB Name Torby Frequency 214 KHZ
Type VOR-DME Name Teterboro Frequency 108400 KHZ

-